sensor_id;sensor_type;location;lat;lon;timestamp;temperature;humidity
563;DHT22;266;49.514;8.294;2023-12-20T00:01:22;6.30;99.90
563;DHT22;266;49.514;8.294;2023-12-20T00:03:50;6.30;99.90
563;DHT22;266;49.514;8.294;2023-12-20T00:06:19;6.30;99.90
563;DHT22;266;49.514;8.294;2023-12-20T00:08:47;6.30;99.90
563;DHT22;266;49.514;8.294;2023-12-20T00:11:15;6.30;99.90
563;DHT22;266;49.514;8.294;2023-12-20T00:13:43;6.30;99.90
563;DHT22;266;49.514;8.294;2023-12-20T00:16:14;6.20;99.90
563;DHT22;266;49.514;8.294;2023-12-20T00:18:42;6.20;99.90
563;DHT22;266;49.514;8.294;2023-12-20T00:21:10;6.20;99.90
563;DHT22;266;49.514;8.294;2023-12-20T00:23:40;6.20;99.90
563;DHT22;266;49.514;8.294;2023-12-20T00:26:08;6.30;99.90
563;DHT22;266;49.514;8.294;2023-12-20T00:28:36;6.20;99.90
563;DHT22;266;49.514;8.294;2023-12-20T00:31:04;6.30;99.90
563;DHT22;266;49.514;8.294;2023-12-20T00:33:32;6.20;99.90
563;DHT22;266;49.514;8.294;2023-12-20T00:36:01;6.20;99.90
563;DHT22;266;49.514;8.294;2023-12-20T00:38:29;6.20;99.90
563;DHT22;266;49.514;8.294;2023-12-20T00:40:58;6.20;99.90
563;DHT22;266;49.514;8.294;2023-12-20T00:43:26;6.20;99.90
563;DHT22;266;49.514;8.294;2023-12-20T00:45:54;6.20;99.90
563;DHT22;266;49.514;8.294;2023-12-20T00:48:22;6.20;99.90
563;DHT22;266;49.514;8.294;2023-12-20T00:50:50;6.20;99.90
563;DHT22;266;49.514;8.294;2023-12-20T00:53:18;6.20;99.90
563;DHT22;266;49.514;8.294;2023-12-20T00:55:46;6.20;99.90
563;DHT22;266;49.514;8.294;2023-12-20T00:58:16;6.10;99.90
563;DHT22;266;49.514;8.294;2023-12-20T01:00:44;6.10;99.90
563;DHT22;266;49.514;8.294;2023-12-20T01:03:11;6.10;99.90
563;DHT22;266;49.514;8.294;2023-12-20T01:05:39;6.00;99.90
563;DHT22;266;49.514;8.294;2023-12-20T01:08:07;6.00;99.90
563;DHT22;266;49.514;8.294;2023-12-20T01:10:35;6.00;99.90
563;DHT22;266;49.514;8.294;2023-12-20T01:13:03;6.00;99.90
563;DHT22;266;49.514;8.294;2023-12-20T01:15:32;6.00;99.90
563;DHT22;266;49.514;8.294;2023-12-20T01:18:00;6.00;99.90
563;DHT22;266;49.514;8.294;2023-12-20T01:20:29;6.00;99.90
563;DHT22;266;49.514;8.294;2023-12-20T01:22:57;6.00;99.90
563;DHT22;266;49.514;8.294;2023-12-20T01:25:25;6.00;99.90
563;DHT22;266;49.514;8.294;2023-12-20T01:27:53;5.90;99.90
563;DHT22;266;49.514;8.294;2023-12-20T01:30:20;5.90;99.90
563;DHT22;266;49.514;8.294;2023-12-20T01:32:50;5.90;99.90
563;DHT22;266;49.514;8.294;2023-12-20T01:35:18;5.90;99.90
563;DHT22;266;49.514;8.294;2023-12-20T01:37:46;5.90;99.90
563;DHT22;266;49.514;8.294;2023-12-20T01:40:14;5.80;99.90
563;DHT22;266;49.514;8.294;2023-12-20T01:42:42;5.80;99.90
563;DHT22;266;49.514;8.294;2023-12-20T01:45:10;5.80;99.90
563;DHT22;266;49.514;8.294;2023-12-20T01:47:38;5.80;99.90
563;DHT22;266;49.514;8.294;2023-12-20T01:50:08;5.90;99.90
563;DHT22;266;49.514;8.294;2023-12-20T01:52:36;5.90;99.90
563;DHT22;266;49.514;8.294;2023-12-20T01:55:06;5.90;99.90
563;DHT22;266;49.514;8.294;2023-12-20T01:57:40;5.90;99.90
563;DHT22;266;49.514;8.294;2023-12-20T02:00:10;5.90;99.90
563;DHT22;266;49.514;8.294;2023-12-20T02:02:40;5.90;99.90
563;DHT22;266;49.514;8.294;2023-12-20T02:05:11;5.90;99.90
563;DHT22;266;49.514;8.294;2023-12-20T02:07:40;5.90;99.90
563;DHT22;266;49.514;8.294;2023-12-20T02:10:08;5.80;99.90
563;DHT22;266;49.514;8.294;2023-12-20T02:12:36;5.80;99.90
563;DHT22;266;49.514;8.294;2023-12-20T02:15:05;5.80;99.90
563;DHT22;266;49.514;8.294;2023-12-20T02:17:34;5.90;99.90
563;DHT22;266;49.514;8.294;2023-12-20T02:20:03;5.90;99.90
563;DHT22;266;49.514;8.294;2023-12-20T02:22:34;5.90;99.90
563;DHT22;266;49.514;8.294;2023-12-20T02:25:02;5.80;99.90
563;DHT22;266;49.514;8.294;2023-12-20T02:27:30;5.70;99.90
563;DHT22;266;49.514;8.294;2023-12-20T02:29:58;5.80;99.90
563;DHT22;266;49.514;8.294;2023-12-20T02:32:26;5.70;99.90
563;DHT22;266;49.514;8.294;2023-12-20T02:34:54;5.80;99.90
563;DHT22;266;49.514;8.294;2023-12-20T02:37:23;5.80;99.90
563;DHT22;266;49.514;8.294;2023-12-20T02:39:53;5.90;99.90
563;DHT22;266;49.514;8.294;2023-12-20T02:42:21;5.90;99.90
563;DHT22;266;49.514;8.294;2023-12-20T02:44:49;5.80;99.90
563;DHT22;266;49.514;8.294;2023-12-20T02:47:17;5.90;99.90
563;DHT22;266;49.514;8.294;2023-12-20T02:49:45;5.90;99.90
563;DHT22;266;49.514;8.294;2023-12-20T02:52:13;5.90;99.90
563;DHT22;266;49.514;8.294;2023-12-20T02:54:41;5.80;99.90
563;DHT22;266;49.514;8.294;2023-12-20T02:57:10;5.80;99.90
563;DHT22;266;49.514;8.294;2023-12-20T02:59:38;5.70;99.90
563;DHT22;266;49.514;8.294;2023-12-20T03:02:06;5.70;99.90
563;DHT22;266;49.514;8.294;2023-12-20T03:04:34;5.80;99.90
563;DHT22;266;49.514;8.294;2023-12-20T03:07:03;5.80;99.90
563;DHT22;266;49.514;8.294;2023-12-20T03:09:31;5.80;99.90
563;DHT22;266;49.514;8.294;2023-12-20T03:12:20;5.80;99.90
563;DHT22;266;49.514;8.294;2023-12-20T03:14:48;5.80;99.90
563;DHT22;266;49.514;8.294;2023-12-20T03:17:16;5.80;99.90
563;DHT22;266;49.514;8.294;2023-12-20T03:19:45;5.80;99.90
563;DHT22;266;49.514;8.294;2023-12-20T03:22:13;5.70;99.90
563;DHT22;266;49.514;8.294;2023-12-20T03:24:41;5.70;99.90
563;DHT22;266;49.514;8.294;2023-12-20T03:27:09;5.70;99.90
563;DHT22;266;49.514;8.294;2023-12-20T03:29:38;5.70;99.90
563;DHT22;266;49.514;8.294;2023-12-20T03:32:06;5.80;99.90
563;DHT22;266;49.514;8.294;2023-12-20T03:34:35;5.80;99.90
563;DHT22;266;49.514;8.294;2023-12-20T03:37:03;5.80;99.90
563;DHT22;266;49.514;8.294;2023-12-20T03:39:31;5.90;99.90
563;DHT22;266;49.514;8.294;2023-12-20T03:41:59;5.80;99.90
563;DHT22;266;49.514;8.294;2023-12-20T03:44:27;5.70;99.90
563;DHT22;266;49.514;8.294;2023-12-20T03:46:56;5.70;99.90
563;DHT22;266;49.514;8.294;2023-12-20T03:49:24;5.70;99.90
563;DHT22;266;49.514;8.294;2023-12-20T03:51:52;5.70;99.90
563;DHT22;266;49.514;8.294;2023-12-20T03:54:20;5.70;99.90
563;DHT22;266;49.514;8.294;2023-12-20T03:56:48;5.80;99.90
563;DHT22;266;49.514;8.294;2023-12-20T03:59:17;5.80;99.90
563;DHT22;266;49.514;8.294;2023-12-20T04:01:45;5.80;99.90
563;DHT22;266;49.514;8.294;2023-12-20T04:04:15;5.80;99.90
563;DHT22;266;49.514;8.294;2023-12-20T04:06:42;5.90;99.90
563;DHT22;266;49.514;8.294;2023-12-20T04:09:11;6.00;99.90
563;DHT22;266;49.514;8.294;2023-12-20T04:11:39;6.10;99.90
563;DHT22;266;49.514;8.294;2023-12-20T04:14:07;6.10;99.90
563;DHT22;266;49.514;8.294;2023-12-20T04:16:35;6.20;99.90
563;DHT22;266;49.514;8.294;2023-12-20T04:19:03;6.20;99.90
563;DHT22;266;49.514;8.294;2023-12-20T04:21:32;6.20;99.90
563;DHT22;266;49.514;8.294;2023-12-20T04:24:00;6.20;99.90
563;DHT22;266;49.514;8.294;2023-12-20T04:26:28;6.20;99.90
563;DHT22;266;49.514;8.294;2023-12-20T04:28:57;6.20;99.90
563;DHT22;266;49.514;8.294;2023-12-20T04:31:25;6.20;99.90
563;DHT22;266;49.514;8.294;2023-12-20T04:33:53;6.20;99.90
563;DHT22;266;49.514;8.294;2023-12-20T04:36:21;6.10;99.90
563;DHT22;266;49.514;8.294;2023-12-20T04:38:50;6.20;99.90
563;DHT22;266;49.514;8.294;2023-12-20T04:41:18;6.20;99.90
563;DHT22;266;49.514;8.294;2023-12-20T04:43:46;6.20;99.90
563;DHT22;266;49.514;8.294;2023-12-20T04:46:14;6.20;99.90
563;DHT22;266;49.514;8.294;2023-12-20T04:48:42;6.20;99.90
563;DHT22;266;49.514;8.294;2023-12-20T04:51:10;6.20;99.90
563;DHT22;266;49.514;8.294;2023-12-20T04:53:38;6.20;99.90
563;DHT22;266;49.514;8.294;2023-12-20T04:56:07;6.20;99.90
563;DHT22;266;49.514;8.294;2023-12-20T04:58:35;6.10;99.90
563;DHT22;266;49.514;8.294;2023-12-20T05:01:03;6.10;99.90
563;DHT22;266;49.514;8.294;2023-12-20T05:03:33;6.10;99.90
563;DHT22;266;49.514;8.294;2023-12-20T05:06:01;6.10;99.90
563;DHT22;266;49.514;8.294;2023-12-20T05:08:29;6.20;99.90
563;DHT22;266;49.514;8.294;2023-12-20T05:10:57;6.20;99.90
563;DHT22;266;49.514;8.294;2023-12-20T05:13:26;6.30;99.90
563;DHT22;266;49.514;8.294;2023-12-20T05:16:08;6.30;99.90
563;DHT22;266;49.514;8.294;2023-12-20T05:18:36;6.30;99.90
563;DHT22;266;49.514;8.294;2023-12-20T05:21:04;6.30;99.90
563;DHT22;266;49.514;8.294;2023-12-20T05:23:32;6.30;99.90
563;DHT22;266;49.514;8.294;2023-12-20T05:26:00;6.40;99.90
563;DHT22;266;49.514;8.294;2023-12-20T05:28:29;6.40;99.90
563;DHT22;266;49.514;8.294;2023-12-20T05:30:57;6.30;99.90
563;DHT22;266;49.514;8.294;2023-12-20T05:33:26;6.30;99.90
563;DHT22;266;49.514;8.294;2023-12-20T05:35:54;6.30;99.90
563;DHT22;266;49.514;8.294;2023-12-20T05:38:22;6.30;99.90
563;DHT22;266;49.514;8.294;2023-12-20T05:40:50;6.30;99.90
563;DHT22;266;49.514;8.294;2023-12-20T05:43:20;6.20;99.90
563;DHT22;266;49.514;8.294;2023-12-20T05:45:51;6.20;99.90
563;DHT22;266;49.514;8.294;2023-12-20T05:48:20;6.10;99.90
563;DHT22;266;49.514;8.294;2023-12-20T05:50:49;6.10;99.90
563;DHT22;266;49.514;8.294;2023-12-20T05:53:17;6.10;99.90
563;DHT22;266;49.514;8.294;2023-12-20T05:55:45;6.10;99.90
563;DHT22;266;49.514;8.294;2023-12-20T05:58:13;6.00;99.90
563;DHT22;266;49.514;8.294;2023-12-20T06:00:41;6.00;99.90
563;DHT22;266;49.514;8.294;2023-12-20T06:03:10;6.00;99.90
563;DHT22;266;49.514;8.294;2023-12-20T06:05:38;5.90;99.90
563;DHT22;266;49.514;8.294;2023-12-20T06:08:06;5.90;99.90
563;DHT22;266;49.514;8.294;2023-12-20T06:10:34;5.80;99.90
563;DHT22;266;49.514;8.294;2023-12-20T06:13:02;5.80;99.90
563;DHT22;266;49.514;8.294;2023-12-20T06:15:31;5.80;99.90
563;DHT22;266;49.514;8.294;2023-12-20T06:17:59;5.80;99.90
563;DHT22;266;49.514;8.294;2023-12-20T06:20:28;5.70;99.90
563;DHT22;266;49.514;8.294;2023-12-20T06:22:56;5.70;99.90
563;DHT22;266;49.514;8.294;2023-12-20T06:25:24;5.70;99.90
563;DHT22;266;49.514;8.294;2023-12-20T06:27:52;5.70;99.90
563;DHT22;266;49.514;8.294;2023-12-20T06:30:21;5.70;99.90
563;DHT22;266;49.514;8.294;2023-12-20T06:32:49;5.80;99.90
563;DHT22;266;49.514;8.294;2023-12-20T06:35:17;5.70;99.90
563;DHT22;266;49.514;8.294;2023-12-20T06:37:47;5.60;99.90
563;DHT22;266;49.514;8.294;2023-12-20T06:40:15;5.60;99.90
563;DHT22;266;49.514;8.294;2023-12-20T06:42:45;5.60;99.90
563;DHT22;266;49.514;8.294;2023-12-20T06:45:31;5.60;99.90
563;DHT22;266;49.514;8.294;2023-12-20T06:47:58;5.60;99.90
563;DHT22;266;49.514;8.294;2023-12-20T06:50:27;5.60;99.90
563;DHT22;266;49.514;8.294;2023-12-20T06:52:56;5.60;99.90
563;DHT22;266;49.514;8.294;2023-12-20T06:55:24;5.60;99.90
563;DHT22;266;49.514;8.294;2023-12-20T06:57:52;5.50;99.90
563;DHT22;266;49.514;8.294;2023-12-20T07:00:20;5.60;99.90
563;DHT22;266;49.514;8.294;2023-12-20T07:02:48;5.50;99.90
563;DHT22;266;49.514;8.294;2023-12-20T07:05:17;5.50;99.90
563;DHT22;266;49.514;8.294;2023-12-20T07:07:47;5.50;99.90
563;DHT22;266;49.514;8.294;2023-12-20T07:10:17;5.50;99.90
563;DHT22;266;49.514;8.294;2023-12-20T07:12:45;5.50;99.90
563;DHT22;266;49.514;8.294;2023-12-20T07:15:15;5.50;99.90
563;DHT22;266;49.514;8.294;2023-12-20T07:17:43;5.40;99.90
563;DHT22;266;49.514;8.294;2023-12-20T07:20:12;5.30;99.90
563;DHT22;266;49.514;8.294;2023-12-20T07:22:40;5.20;99.90
563;DHT22;266;49.514;8.294;2023-12-20T07:25:08;5.00;99.90
563;DHT22;266;49.514;8.294;2023-12-20T07:27:38;5.10;99.90
563;DHT22;266;49.514;8.294;2023-12-20T07:30:11;5.00;99.90
563;DHT22;266;49.514;8.294;2023-12-20T07:32:39;5.00;99.90
563;DHT22;266;49.514;8.294;2023-12-20T07:35:07;5.10;99.90
563;DHT22;266;49.514;8.294;2023-12-20T07:37:35;5.20;99.90
563;DHT22;266;49.514;8.294;2023-12-20T07:40:04;5.20;99.90
563;DHT22;266;49.514;8.294;2023-12-20T07:42:32;5.30;99.90
563;DHT22;266;49.514;8.294;2023-12-20T07:45:02;5.70;99.90
563;DHT22;266;49.514;8.294;2023-12-20T07:47:30;5.90;99.90
563;DHT22;266;49.514;8.294;2023-12-20T07:49:58;6.30;99.90
563;DHT22;266;49.514;8.294;2023-12-20T07:52:26;6.70;99.90
563;DHT22;266;49.514;8.294;2023-12-20T07:54:54;7.10;99.90
563;DHT22;266;49.514;8.294;2023-12-20T07:57:23;7.70;99.90
563;DHT22;266;49.514;8.294;2023-12-20T07:59:51;8.20;99.90
563;DHT22;266;49.514;8.294;2023-12-20T08:02:21;8.50;99.90
563;DHT22;266;49.514;8.294;2023-12-20T08:04:49;8.80;99.90
563;DHT22;266;49.514;8.294;2023-12-20T08:07:18;9.10;99.90
563;DHT22;266;49.514;8.294;2023-12-20T08:09:46;9.40;99.90
563;DHT22;266;49.514;8.294;2023-12-20T08:12:14;9.90;99.90
563;DHT22;266;49.514;8.294;2023-12-20T08:14:43;9.90;99.90
563;DHT22;266;49.514;8.294;2023-12-20T08:17:11;9.40;99.90
563;DHT22;266;49.514;8.294;2023-12-20T08:19:41;9.50;99.90
563;DHT22;266;49.514;8.294;2023-12-20T08:22:09;10.30;99.90
563;DHT22;266;49.514;8.294;2023-12-20T08:24:37;11.00;99.90
563;DHT22;266;49.514;8.294;2023-12-20T08:27:05;11.70;99.90
563;DHT22;266;49.514;8.294;2023-12-20T08:29:32;12.40;99.90
563;DHT22;266;49.514;8.294;2023-12-20T08:32:00;12.70;99.90
563;DHT22;266;49.514;8.294;2023-12-20T08:34:28;12.60;99.90
563;DHT22;266;49.514;8.294;2023-12-20T08:36:58;12.50;99.90
563;DHT22;266;49.514;8.294;2023-12-20T08:39:26;13.30;99.90
563;DHT22;266;49.514;8.294;2023-12-20T08:41:54;13.90;99.90
563;DHT22;266;49.514;8.294;2023-12-20T08:44:22;14.70;99.90
563;DHT22;266;49.514;8.294;2023-12-20T08:46:50;14.80;99.90
563;DHT22;266;49.514;8.294;2023-12-20T08:49:18;14.60;99.90
563;DHT22;266;49.514;8.294;2023-12-20T08:51:46;14.50;99.90
563;DHT22;266;49.514;8.294;2023-12-20T08:54:16;14.80;99.90
563;DHT22;266;49.514;8.294;2023-12-20T08:56:45;15.30;99.90
563;DHT22;266;49.514;8.294;2023-12-20T08:59:14;15.40;99.90
563;DHT22;266;49.514;8.294;2023-12-20T09:01:41;15.50;99.90
563;DHT22;266;49.514;8.294;2023-12-20T09:04:09;15.40;99.90
563;DHT22;266;49.514;8.294;2023-12-20T09:06:38;14.70;99.90
563;DHT22;266;49.514;8.294;2023-12-20T09:09:06;13.80;99.90
563;DHT22;266;49.514;8.294;2023-12-20T09:11:38;13.10;99.90
563;DHT22;266;49.514;8.294;2023-12-20T09:14:06;12.60;99.90
563;DHT22;266;49.514;8.294;2023-12-20T09:16:34;12.90;99.90
563;DHT22;266;49.514;8.294;2023-12-20T09:19:02;12.90;99.90
563;DHT22;266;49.514;8.294;2023-12-20T09:21:30;13.00;99.90
563;DHT22;266;49.514;8.294;2023-12-20T09:23:58;13.00;99.90
563;DHT22;266;49.514;8.294;2023-12-20T09:26:26;12.70;99.90
563;DHT22;266;49.514;8.294;2023-12-20T09:28:56;12.20;99.90
563;DHT22;266;49.514;8.294;2023-12-20T09:31:23;10.90;99.90
563;DHT22;266;49.514;8.294;2023-12-20T09:33:52;10.00;99.90
563;DHT22;266;49.514;8.294;2023-12-20T09:36:20;9.40;99.90
563;DHT22;266;49.514;8.294;2023-12-20T09:38:48;9.10;99.90
563;DHT22;266;49.514;8.294;2023-12-20T09:41:16;8.80;99.90
563;DHT22;266;49.514;8.294;2023-12-20T09:43:43;8.60;99.90
563;DHT22;266;49.514;8.294;2023-12-20T09:46:15;8.40;99.90
563;DHT22;266;49.514;8.294;2023-12-20T09:48:46;8.20;99.90
563;DHT22;266;49.514;8.294;2023-12-20T09:51:15;8.00;99.90
563;DHT22;266;49.514;8.294;2023-12-20T09:53:43;7.90;99.90
563;DHT22;266;49.514;8.294;2023-12-20T09:56:12;7.80;99.90
563;DHT22;266;49.514;8.294;2023-12-20T09:58:40;7.80;99.90
563;DHT22;266;49.514;8.294;2023-12-20T10:01:08;7.80;99.90
563;DHT22;266;49.514;8.294;2023-12-20T10:03:39;7.80;99.90
563;DHT22;266;49.514;8.294;2023-12-20T10:06:08;7.80;99.90
563;DHT22;266;49.514;8.294;2023-12-20T10:08:37;7.70;99.90
563;DHT22;266;49.514;8.294;2023-12-20T10:11:05;7.80;99.90
563;DHT22;266;49.514;8.294;2023-12-20T10:13:33;7.80;99.90
563;DHT22;266;49.514;8.294;2023-12-20T10:16:01;7.80;99.90
563;DHT22;266;49.514;8.294;2023-12-20T10:18:29;7.80;99.90
563;DHT22;266;49.514;8.294;2023-12-20T10:21:07;7.70;99.90
563;DHT22;266;49.514;8.294;2023-12-20T10:23:37;7.70;99.90
563;DHT22;266;49.514;8.294;2023-12-20T10:26:06;7.70;99.90
563;DHT22;266;49.514;8.294;2023-12-20T10:28:34;7.70;99.90
563;DHT22;266;49.514;8.294;2023-12-20T10:31:02;7.70;99.90
563;DHT22;266;49.514;8.294;2023-12-20T10:33:31;7.60;99.90
563;DHT22;266;49.514;8.294;2023-12-20T10:35:59;7.70;99.90
563;DHT22;266;49.514;8.294;2023-12-20T10:38:29;7.70;99.90
563;DHT22;266;49.514;8.294;2023-12-20T10:40:57;7.70;99.90
563;DHT22;266;49.514;8.294;2023-12-20T10:43:28;7.80;99.90
563;DHT22;266;49.514;8.294;2023-12-20T10:45:59;7.70;99.90
563;DHT22;266;49.514;8.294;2023-12-20T10:48:28;7.70;99.90
563;DHT22;266;49.514;8.294;2023-12-20T10:50:58;7.70;99.90
563;DHT22;266;49.514;8.294;2023-12-20T10:53:26;7.70;99.90
563;DHT22;266;49.514;8.294;2023-12-20T10:55:56;7.80;99.90
563;DHT22;266;49.514;8.294;2023-12-20T10:58:29;7.70;99.90
563;DHT22;266;49.514;8.294;2023-12-20T11:01:00;7.70;99.90
563;DHT22;266;49.514;8.294;2023-12-20T11:03:34;7.70;99.90
563;DHT22;266;49.514;8.294;2023-12-20T11:06:05;7.70;99.90
563;DHT22;266;49.514;8.294;2023-12-20T11:08:39;7.70;99.90
563;DHT22;266;49.514;8.294;2023-12-20T11:11:14;7.70;99.90
563;DHT22;266;49.514;8.294;2023-12-20T11:13:53;7.70;99.90
563;DHT22;266;49.514;8.294;2023-12-20T11:16:22;7.70;99.90
563;DHT22;266;49.514;8.294;2023-12-20T11:18:53;7.70;99.90
563;DHT22;266;49.514;8.294;2023-12-20T11:21:21;7.70;99.90
563;DHT22;266;49.514;8.294;2023-12-20T11:23:50;7.80;99.90
563;DHT22;266;49.514;8.294;2023-12-20T11:26:22;7.80;99.90
563;DHT22;266;49.514;8.294;2023-12-20T11:28:50;7.70;99.90
563;DHT22;266;49.514;8.294;2023-12-20T11:31:18;7.70;99.90
563;DHT22;266;49.514;8.294;2023-12-20T11:33:46;7.70;99.90
563;DHT22;266;49.514;8.294;2023-12-20T11:36:18;7.70;99.90
563;DHT22;266;49.514;8.294;2023-12-20T11:38:56;7.80;99.90
563;DHT22;266;49.514;8.294;2023-12-20T11:41:26;7.80;99.90
563;DHT22;266;49.514;8.294;2023-12-20T11:43:54;7.80;99.90
563;DHT22;266;49.514;8.294;2023-12-20T11:46:22;7.80;99.90
563;DHT22;266;49.514;8.294;2023-12-20T11:48:52;7.80;99.90
563;DHT22;266;49.514;8.294;2023-12-20T11:51:20;7.70;99.90
563;DHT22;266;49.514;8.294;2023-12-20T11:53:51;7.70;99.90
563;DHT22;266;49.514;8.294;2023-12-20T11:56:20;7.70;99.90
563;DHT22;266;49.514;8.294;2023-12-20T11:58:49;7.70;99.90
563;DHT22;266;49.514;8.294;2023-12-20T12:01:19;7.80;99.90
563;DHT22;266;49.514;8.294;2023-12-20T12:03:48;7.80;99.90
563;DHT22;266;49.514;8.294;2023-12-20T12:06:16;7.80;99.90
563;DHT22;266;49.514;8.294;2023-12-20T12:08:44;7.70;99.90
563;DHT22;266;49.514;8.294;2023-12-20T12:11:11;7.70;99.90
563;DHT22;266;49.514;8.294;2023-12-20T12:13:40;7.80;99.90
563;DHT22;266;49.514;8.294;2023-12-20T12:16:10;7.80;99.90
563;DHT22;266;49.514;8.294;2023-12-20T12:18:38;7.80;99.90
563;DHT22;266;49.514;8.294;2023-12-20T12:21:08;7.80;99.90
563;DHT22;266;49.514;8.294;2023-12-20T12:23:44;7.80;99.90
563;DHT22;266;49.514;8.294;2023-12-20T12:26:12;7.70;99.90
563;DHT22;266;49.514;8.294;2023-12-20T12:28:41;7.70;99.90
563;DHT22;266;49.514;8.294;2023-12-20T12:31:14;7.70;99.90
563;DHT22;266;49.514;8.294;2023-12-20T12:33:43;7.70;99.90
563;DHT22;266;49.514;8.294;2023-12-20T12:36:12;7.70;99.90
563;DHT22;266;49.514;8.294;2023-12-20T12:38:42;7.60;99.90
563;DHT22;266;49.514;8.294;2023-12-20T12:41:12;7.70;99.90
563;DHT22;266;49.514;8.294;2023-12-20T12:43:41;7.60;99.90
563;DHT22;266;49.514;8.294;2023-12-20T12:46:10;7.60;99.90
563;DHT22;266;49.514;8.294;2023-12-20T12:48:39;7.60;99.90
563;DHT22;266;49.514;8.294;2023-12-20T12:51:11;7.60;99.90
563;DHT22;266;49.514;8.294;2023-12-20T12:53:41;7.50;99.90
563;DHT22;266;49.514;8.294;2023-12-20T12:56:09;7.50;99.90
563;DHT22;266;49.514;8.294;2023-12-20T12:58:37;7.50;99.90
563;DHT22;266;49.514;8.294;2023-12-20T13:01:05;7.50;99.90
563;DHT22;266;49.514;8.294;2023-12-20T13:03:35;7.60;99.90
563;DHT22;266;49.514;8.294;2023-12-20T13:06:07;7.60;99.90
563;DHT22;266;49.514;8.294;2023-12-20T13:08:35;7.60;99.90
563;DHT22;266;49.514;8.294;2023-12-20T13:11:03;7.60;99.90
563;DHT22;266;49.514;8.294;2023-12-20T13:13:31;7.60;99.90
563;DHT22;266;49.514;8.294;2023-12-20T13:15:59;7.60;99.90
563;DHT22;266;49.514;8.294;2023-12-20T13:18:27;7.60;99.90
563;DHT22;266;49.514;8.294;2023-12-20T13:20:56;7.60;99.90
563;DHT22;266;49.514;8.294;2023-12-20T13:23:25;7.70;99.90
563;DHT22;266;49.514;8.294;2023-12-20T13:25:53;7.70;99.90
563;DHT22;266;49.514;8.294;2023-12-20T13:28:21;7.70;99.90
563;DHT22;266;49.514;8.294;2023-12-20T13:30:49;7.90;99.90
563;DHT22;266;49.514;8.294;2023-12-20T13:33:18;7.90;99.90
563;DHT22;266;49.514;8.294;2023-12-20T13:35:45;8.00;99.90
563;DHT22;266;49.514;8.294;2023-12-20T13:38:13;8.00;99.90
563;DHT22;266;49.514;8.294;2023-12-20T13:40:43;8.10;99.90
563;DHT22;266;49.514;8.294;2023-12-20T13:43:11;8.20;99.90
563;DHT22;266;49.514;8.294;2023-12-20T13:45:39;8.20;99.90
563;DHT22;266;49.514;8.294;2023-12-20T13:48:08;8.10;99.90
563;DHT22;266;49.514;8.294;2023-12-20T13:50:36;8.00;99.90
563;DHT22;266;49.514;8.294;2023-12-20T13:53:04;8.30;99.90
563;DHT22;266;49.514;8.294;2023-12-20T13:55:32;8.80;99.90
563;DHT22;266;49.514;8.294;2023-12-20T13:58:04;9.40;99.90
563;DHT22;266;49.514;8.294;2023-12-20T14:00:32;9.80;99.90
563;DHT22;266;49.514;8.294;2023-12-20T14:03:00;9.70;99.90
563;DHT22;266;49.514;8.294;2023-12-20T14:05:28;9.50;99.90
563;DHT22;266;49.514;8.294;2023-12-20T14:07:57;9.90;99.90
563;DHT22;266;49.514;8.294;2023-12-20T14:10:25;10.10;99.90
563;DHT22;266;49.514;8.294;2023-12-20T14:12:54;10.40;99.90
563;DHT22;266;49.514;8.294;2023-12-20T14:15:24;10.50;99.90
563;DHT22;266;49.514;8.294;2023-12-20T14:17:52;10.40;99.90
563;DHT22;266;49.514;8.294;2023-12-20T14:20:21;10.00;99.90
563;DHT22;266;49.514;8.294;2023-12-20T14:22:50;9.60;99.90
563;DHT22;266;49.514;8.294;2023-12-20T14:25:18;9.20;99.90
563;DHT22;266;49.514;8.294;2023-12-20T14:27:46;8.90;99.90
563;DHT22;266;49.514;8.294;2023-12-20T14:30:14;8.70;99.90
563;DHT22;266;49.514;8.294;2023-12-20T14:32:45;8.60;99.90
563;DHT22;266;49.514;8.294;2023-12-20T14:35:14;8.60;99.90
563;DHT22;266;49.514;8.294;2023-12-20T14:37:43;8.40;99.90
563;DHT22;266;49.514;8.294;2023-12-20T14:40:12;8.30;99.90
563;DHT22;266;49.514;8.294;2023-12-20T14:42:43;8.00;99.90
563;DHT22;266;49.514;8.294;2023-12-20T14:45:11;8.00;99.90
563;DHT22;266;49.514;8.294;2023-12-20T14:47:40;7.90;99.90
563;DHT22;266;49.514;8.294;2023-12-20T14:50:10;7.80;99.90
563;DHT22;266;49.514;8.294;2023-12-20T14:52:44;7.70;99.90
563;DHT22;266;49.514;8.294;2023-12-20T14:55:12;7.70;99.90
563;DHT22;266;49.514;8.294;2023-12-20T14:57:40;7.60;99.90
563;DHT22;266;49.514;8.294;2023-12-20T15:00:09;7.60;99.90
563;DHT22;266;49.514;8.294;2023-12-20T15:02:39;7.60;99.90
563;DHT22;266;49.514;8.294;2023-12-20T15:05:07;7.50;99.90
563;DHT22;266;49.514;8.294;2023-12-20T15:07:36;7.50;99.90
563;DHT22;266;49.514;8.294;2023-12-20T15:10:05;7.40;99.90
563;DHT22;266;49.514;8.294;2023-12-20T15:12:33;7.40;99.90
563;DHT22;266;49.514;8.294;2023-12-20T15:15:01;7.30;99.90
563;DHT22;266;49.514;8.294;2023-12-20T15:17:29;7.30;99.90
563;DHT22;266;49.514;8.294;2023-12-20T15:19:57;7.30;99.90
563;DHT22;266;49.514;8.294;2023-12-20T15:22:25;7.30;99.90
563;DHT22;266;49.514;8.294;2023-12-20T15:24:55;7.20;99.90
563;DHT22;266;49.514;8.294;2023-12-20T15:27:23;7.20;99.90
563;DHT22;266;49.514;8.294;2023-12-20T15:29:51;7.10;99.90
563;DHT22;266;49.514;8.294;2023-12-20T15:32:19;7.10;99.90
563;DHT22;266;49.514;8.294;2023-12-20T15:34:47;7.10;99.90
563;DHT22;266;49.514;8.294;2023-12-20T15:37:15;7.00;99.90
563;DHT22;266;49.514;8.294;2023-12-20T15:39:43;7.00;99.90
563;DHT22;266;49.514;8.294;2023-12-20T15:42:13;7.00;99.90
563;DHT22;266;49.514;8.294;2023-12-20T15:44:40;7.00;99.90
563;DHT22;266;49.514;8.294;2023-12-20T15:47:08;7.00;99.90
563;DHT22;266;49.514;8.294;2023-12-20T15:49:36;7.00;99.90
563;DHT22;266;49.514;8.294;2023-12-20T15:52:05;7.10;99.90
563;DHT22;266;49.514;8.294;2023-12-20T15:54:33;7.10;99.90
563;DHT22;266;49.514;8.294;2023-12-20T15:57:04;7.10;99.90
563;DHT22;266;49.514;8.294;2023-12-20T15:59:33;7.20;99.90
563;DHT22;266;49.514;8.294;2023-12-20T16:02:02;7.30;99.90
563;DHT22;266;49.514;8.294;2023-12-20T16:04:30;7.30;99.90
563;DHT22;266;49.514;8.294;2023-12-20T16:06:59;7.40;99.90
563;DHT22;266;49.514;8.294;2023-12-20T16:09:27;7.40;99.90
563;DHT22;266;49.514;8.294;2023-12-20T16:11:55;7.40;99.90
563;DHT22;266;49.514;8.294;2023-12-20T16:14:23;7.40;99.90
563;DHT22;266;49.514;8.294;2023-12-20T16:16:55;7.40;99.90
563;DHT22;266;49.514;8.294;2023-12-20T16:19:23;7.40;99.90
563;DHT22;266;49.514;8.294;2023-12-20T16:21:51;7.40;99.90
563;DHT22;266;49.514;8.294;2023-12-20T16:24:19;7.40;99.90
563;DHT22;266;49.514;8.294;2023-12-20T16:26:47;7.40;99.90
563;DHT22;266;49.514;8.294;2023-12-20T16:29:15;7.40;99.90
563;DHT22;266;49.514;8.294;2023-12-20T16:31:43;7.50;99.90
563;DHT22;266;49.514;8.294;2023-12-20T16:34:12;7.40;99.90
563;DHT22;266;49.514;8.294;2023-12-20T16:36:58;7.50;99.90
563;DHT22;266;49.514;8.294;2023-12-20T16:39:26;7.50;99.90
563;DHT22;266;49.514;8.294;2023-12-20T16:41:53;7.50;99.90
563;DHT22;266;49.514;8.294;2023-12-20T16:44:21;7.50;99.90
563;DHT22;266;49.514;8.294;2023-12-20T16:46:49;7.50;99.90
563;DHT22;266;49.514;8.294;2023-12-20T16:49:18;7.50;99.90
563;DHT22;266;49.514;8.294;2023-12-20T16:51:47;7.50;99.90
563;DHT22;266;49.514;8.294;2023-12-20T16:54:15;7.50;99.90
563;DHT22;266;49.514;8.294;2023-12-20T16:56:42;7.50;99.90
563;DHT22;266;49.514;8.294;2023-12-20T16:59:10;7.60;99.90